Terminal Aerodrome Forecast
Issued by NWS Mt. Holly, NJ

Current Version | Previous Version | Text Only | Print | Product List | Glossary On
Versions: 1 2 3 4 5 6 7 8 9 10 11 12 13 14 15 16 17 18 19
000
FTUS41 KPHI 301600 AAB
TAFTTN
TAF AMD
KTTN 301629Z 3016/3112 32016G25KT P6SM BKN035
     FM302200 33019G37KT P6SM SCT030
     FM310800 32017G30KT P6SM SKC=

USA.gov is the U.S. government's official web portal to all federal, state and local government web resources and services.